Wailuku, HI (96793)

2:52 PM HST on September 02, 2014 (GMT -1000)
Kehalani | Change Station
CLOSE
Current Station
Personal Weather Station
Location: Wailuku, HI
Elevation: 358 ft
Nearby Weather Stations

Elev 358 ft 20.87 °N, 156.50 °W | Updated 15 minutes ago

Scattered Clouds
Scattered Clouds
82.6 °F
Feels Like 88 °F
N
16.1
Wind Variable Wind from WNW

Today
High -- | Low -- °F
--% Chance of Precip.
Yesterday
High -- | Low -- °F
Precip. -- in
6:10 AM 6:40 PM
First Quarter, 56% visible
Pressure 29.96 in
Visibility 10.0 miles
Clouds Few 2000 ft
Scattered Clouds 5000 ft
Heat Index 88 °F
Dew Point 73 °F
Humidity 73%
Rainfall 0.00 in
Snow Depth Not available.
UV 8 out of 12
Pollen Not available.
Air Quality Not available.
Flu Activity Not available.
METAR PHOG 022354Z 06014G21KT 10SM FEW020 SCT050 32/21 A2994 RMK AO2 SLP144 T03220211 10339 20267 56020

More Conditions Fewer Conditions

Pressure 29.96 in
Visibility 10.0 miles
Clouds Few 2000 ft
Scattered Clouds 5000 ft
Heat Index 88 °F
Dew Point 73 °F
Humidity 73%
Rainfall 0.00 in
Snow Depth Not available.
UV 8 out of 12
Pollen Not available.
Air Quality Not available.
Flu Activity Not available.
METAR PHOG 022354Z 06014G21KT 10SM FEW020 SCT050 32/21 A2994 RMK AO2 SLP144 T03220211 10339 20267 56020

More Conditions Fewer Conditions

10-Day Weather Forecast

Almanac

Astronomy

Sep. 02, 2014 Rise Set
Actual Time 6:10 AM HST 6:40 PM HST
Civil Twilight 5:47 AM HST 7:03 PM HST
Nautical Twilight 5:21 AM HST 7:29 PM HST
Astronomical Twilight 4:54 AM HST 7:55 PM HST
Moon 1:12 PM HST (9/2) No Moon Set
Length of Visible Light 13h 15m
Length of Day
12h 30m
Tomorrow will be 1m 9s shorter.
First Quarter, 56% of the Moon is Illuminated
Today
First Quarter
Sep 8
Full
Sep 15
Last Quarter
Sep 24
New
Oct 1
First Quarter

Today's Extremes

State Highs State Lows

Community

WunderPhotos

Upload Photos

1,749,808 photos uploaded!

Nearby

Snow Depth

Station Depth Elevation
No new snow has been reported.

Earthquake Activity

City Distance Mag. Time & Date
No recent earthquake activity has been reported nearby.
Minimum magnitude displayed is 2.5.

Coastal Water Temperatures

Place Temperature
No Stations Reporting

Nearby Weather Stations